sensor_id;sensor_type;location;lat;lon;timestamp;pressure;altitude;pressure_sealevel;temperature;humidity
51081;BME280;37130;55.670;37.596;2022-09-03T00:00:39;99961.75;;;7.09;63.13
51081;BME280;37130;55.670;37.596;2022-09-03T00:05:50;99967.13;;;7.06;63.41
51081;BME280;37130;55.670;37.596;2022-09-03T00:08:29;99974.16;;;7.06;63.75
51081;BME280;37130;55.670;37.596;2022-09-03T00:11:10;99972.47;;;7.03;63.48
51081;BME280;37130;55.670;37.596;2022-09-03T00:13:44;99977.75;;;7.03;63.84
51081;BME280;37130;55.670;37.596;2022-09-03T00:16:14;99980.38;;;7.03;63.46
51081;BME280;37130;55.670;37.596;2022-09-03T00:18:45;99985.63;;;7.03;63.98
51081;BME280;37130;55.670;37.596;2022-09-03T00:21:16;99987.47;;;6.99;63.56
51081;BME280;37130;55.670;37.596;2022-09-03T00:23:45;99990.19;;;6.96;64.04
51081;BME280;37130;55.670;37.596;2022-09-03T00:26:18;99988.50;;;6.94;64.26
51081;BME280;37130;55.670;37.596;2022-09-03T00:28:50;99999.97;;;6.91;64.20
51081;BME280;37130;55.670;37.596;2022-09-03T00:33:56;100002.69;;;6.88;64.62
51081;BME280;37130;55.670;37.596;2022-09-03T00:36:27;100009.72;;;6.88;64.39
51081;BME280;37130;55.670;37.596;2022-09-03T00:38:58;100009.75;;;6.86;64.31
51081;BME280;37130;55.670;37.596;2022-09-03T00:43:56;100013.34;;;6.84;64.30
51081;BME280;37130;55.670;37.596;2022-09-03T00:46:41;100016.03;;;6.82;65.04
51081;BME280;37130;55.670;37.596;2022-09-03T00:49:16;100019.53;;;6.81;65.12
51081;BME280;37130;55.670;37.596;2022-09-03T00:54:40;100024.91;;;6.78;65.27
51081;BME280;37130;55.670;37.596;2022-09-03T00:59:46;100028.53;;;6.74;65.39
51081;BME280;37130;55.670;37.596;2022-09-03T01:05:01;100027.66;;;6.73;65.27
51081;BME280;37130;55.670;37.596;2022-09-03T01:12:57;100026.03;;;6.68;65.40
51081;BME280;37130;55.670;37.596;2022-09-03T01:20:44;100028.75;;;6.65;65.86
51081;BME280;37130;55.670;37.596;2022-09-03T01:26:29;100022.69;;;6.61;66.06
51081;BME280;37130;55.670;37.596;2022-09-03T01:31:46;100024.53;;;6.57;65.12
51081;BME280;37130;55.670;37.596;2022-09-03T01:44:52;100045.81;;;6.48;66.31
51081;BME280;37130;55.670;37.596;2022-09-03T01:47:36;100046.75;;;6.46;66.05
51081;BME280;37130;55.670;37.596;2022-09-03T01:57:55;100061.84;;;6.38;66.18
51081;BME280;37130;55.670;37.596;2022-09-03T02:00:25;100060.09;;;6.36;66.27
51081;BME280;37130;55.670;37.596;2022-09-03T02:02:54;100067.13;;;6.36;66.62
51081;BME280;37130;55.670;37.596;2022-09-03T02:07:54;100068.91;;;6.35;65.85
51081;BME280;37130;55.670;37.596;2022-09-03T02:10:42;100074.16;;;6.35;66.66
51081;BME280;37130;55.670;37.596;2022-09-03T02:15:39;100078.56;;;6.35;66.80
51081;BME280;37130;55.670;37.596;2022-09-03T02:18:09;100075.94;;;6.33;66.99
51081;BME280;37130;55.670;37.596;2022-09-03T02:20:40;100083.84;;;6.33;67.02
51081;BME280;37130;55.670;37.596;2022-09-03T02:23:07;100075.94;;;6.33;66.45
51081;BME280;37130;55.670;37.596;2022-09-03T02:25:36;100082.13;;;6.32;66.34
51081;BME280;37130;55.670;37.596;2022-09-03T02:28:05;100083.91;;;6.32;66.83
51081;BME280;37130;55.670;37.596;2022-09-03T02:30:43;100090.94;;;6.31;66.45
51081;BME280;37130;55.670;37.596;2022-09-03T02:33:11;100086.53;;;6.32;67.02
51081;BME280;37130;55.670;37.596;2022-09-03T02:35:39;100091.75;;;6.33;67.07
51081;BME280;37130;55.670;37.596;2022-09-03T02:38:25;100097.00;;;6.33;67.17
51081;BME280;37130;55.670;37.596;2022-09-03T02:40:52;100096.13;;;6.33;66.53
51081;BME280;37130;55.670;37.596;2022-09-03T02:43:22;100091.75;;;6.33;67.28
51081;BME280;37130;55.670;37.596;2022-09-03T02:45:53;100102.19;;;6.36;66.63
51081;BME280;37130;55.670;37.596;2022-09-03T02:48:22;100100.44;;;6.37;67.13
51081;BME280;37130;55.670;37.596;2022-09-03T02:50:50;100104.72;;;6.41;66.81
51081;BME280;37130;55.670;37.596;2022-09-03T02:53:17;100103.84;;;6.42;66.44
51081;BME280;37130;55.670;37.596;2022-09-03T02:55:45;100102.03;;;6.44;66.54
51081;BME280;37130;55.670;37.596;2022-09-03T02:58:13;100097.66;;;6.45;66.89
51081;BME280;37130;55.670;37.596;2022-09-03T03:00:40;100101.06;;;6.48;67.10
51081;BME280;37130;55.670;37.596;2022-09-03T03:03:08;100100.13;;;6.51;66.88
51081;BME280;37130;55.670;37.596;2022-09-03T03:05:48;100106.22;;;6.53;66.63
51081;BME280;37130;55.670;37.596;2022-09-03T03:08:18;100112.25;;;6.58;67.07
51081;BME280;37130;55.670;37.596;2022-09-03T03:10:47;100114.41;;;6.78;66.82
51081;BME280;37130;55.670;37.596;2022-09-03T03:13:15;100118.25;;;7.00;67.12
51081;BME280;37130;55.670;37.596;2022-09-03T03:15:43;100115.06;;;7.22;66.36
51081;BME280;37130;55.670;37.596;2022-09-03T03:18:10;100113.75;;;7.38;66.23
51081;BME280;37130;55.670;37.596;2022-09-03T03:20:40;100110.63;;;7.57;66.05
51081;BME280;37130;55.670;37.596;2022-09-03T03:23:08;100113.28;;;7.88;65.90
51081;BME280;37130;55.670;37.596;2022-09-03T03:25:36;100112.72;;;8.39;64.98
51081;BME280;37130;55.670;37.596;2022-09-03T03:28:05;100117.25;;;8.90;64.49
51081;BME280;37130;55.670;37.596;2022-09-03T03:30:32;100123.06;;;9.02;64.21
51081;BME280;37130;55.670;37.596;2022-09-03T03:33:00;100116.13;;;8.99;64.26
51081;BME280;37130;55.670;37.596;2022-09-03T03:35:27;100120.56;;;8.97;65.07
51081;BME280;37130;55.670;37.596;2022-09-03T03:37:58;100121.53;;;8.94;64.81
51081;BME280;37130;55.670;37.596;2022-09-03T03:40:26;100126.22;;;8.86;65.07
51081;BME280;37130;55.670;37.596;2022-09-03T03:42:53;100090.47;;;8.74;64.73
51081;BME280;37130;55.670;37.596;2022-09-03T03:45:21;100135.81;;;9.15;64.83
51081;BME280;37130;55.670;37.596;2022-09-03T03:47:48;100132.00;;;9.24;65.04
51081;BME280;37130;55.670;37.596;2022-09-03T03:50:16;100133.16;;;9.17;64.97
51081;BME280;37130;55.670;37.596;2022-09-03T03:52:43;100135.06;;;9.12;64.65
51081;BME280;37130;55.670;37.596;2022-09-03T03:55:11;100136.03;;;9.09;65.29
51081;BME280;37130;55.670;37.596;2022-09-03T03:57:41;100133.44;;;9.08;65.18
51081;BME280;37130;55.670;37.596;2022-09-03T04:00:11;100134.72;;;9.23;64.96
51081;BME280;37130;55.670;37.596;2022-09-03T04:02:41;100138.75;;;10.08;64.27
51081;BME280;37130;55.670;37.596;2022-09-03T04:05:09;100132.31;;;12.29;61.61
51081;BME280;37130;55.670;37.596;2022-09-03T04:07:37;100144.72;;;14.74;59.00
51081;BME280;37130;55.670;37.596;2022-09-03T04:10:04;100138.31;;;16.97;56.43
51081;BME280;37130;55.670;37.596;2022-09-03T04:12:32;100141.50;;;18.85;54.83
51081;BME280;37130;55.670;37.596;2022-09-03T04:14:59;100150.91;;;20.31;53.65
51081;BME280;37130;55.670;37.596;2022-09-03T04:17:27;100158.03;;;21.21;53.06
51081;BME280;37130;55.670;37.596;2022-09-03T04:19:54;100154.97;;;22.00;52.77
51081;BME280;37130;55.670;37.596;2022-09-03T04:22:21;100162.84;;;22.74;52.24
51081;BME280;37130;55.670;37.596;2022-09-03T04:24:49;100164.28;;;23.87;51.51
51081;BME280;37130;55.670;37.596;2022-09-03T04:27:16;100160.00;;;25.06;50.43
51081;BME280;37130;55.670;37.596;2022-09-03T04:29:44;100168.59;;;26.09;49.75
51081;BME280;37130;55.670;37.596;2022-09-03T04:32:11;100180.78;;;26.91;49.37
51081;BME280;37130;55.670;37.596;2022-09-03T04:34:57;100182.84;;;27.72;48.85
51081;BME280;37130;55.670;37.596;2022-09-03T04:37:24;100175.31;;;28.48;48.43
51081;BME280;37130;55.670;37.596;2022-09-03T04:39:51;100172.19;;;28.99;47.48
51081;BME280;37130;55.670;37.596;2022-09-03T04:42:20;100183.06;;;29.61;47.16
51081;BME280;37130;55.670;37.596;2022-09-03T04:44:48;100182.47;;;30.12;46.82
51081;BME280;37130;55.670;37.596;2022-09-03T04:47:15;100189.41;;;30.67;46.61
51081;BME280;37130;55.670;37.596;2022-09-03T04:49:42;100189.44;;;30.97;46.78
51081;BME280;37130;55.670;37.596;2022-09-03T04:52:11;100180.09;;;30.76;46.78
51081;BME280;37130;55.670;37.596;2022-09-03T04:54:38;100186.19;;;29.50;48.64
51081;BME280;37130;55.670;37.596;2022-09-03T04:57:06;100184.22;;;27.93;49.81
51081;BME280;37130;55.670;37.596;2022-09-03T04:59:33;100181.72;;;26.74;50.08
51081;BME280;37130;55.670;37.596;2022-09-03T05:02:00;100181.94;;;26.20;49.62
51081;BME280;37130;55.670;37.596;2022-09-03T05:04:27;100183.19;;;27.02;47.85
51081;BME280;37130;55.670;37.596;2022-09-03T05:06:55;100186.22;;;28.24;46.51
51081;BME280;37130;55.670;37.596;2022-09-03T05:09:22;100191.66;;;29.50;45.52
51081;BME280;37130;55.670;37.596;2022-09-03T05:11:49;100196.44;;;30.55;43.45
51081;BME280;37130;55.670;37.596;2022-09-03T05:14:16;100195.16;;;31.02;43.14
51081;BME280;37130;55.670;37.596;2022-09-03T05:16:44;100201.19;;;31.49;43.39
51081;BME280;37130;55.670;37.596;2022-09-03T05:19:19;100203.31;;;31.68;43.31
51081;BME280;37130;55.670;37.596;2022-09-03T05:21:46;100203.50;;;31.66;43.75
51081;BME280;37130;55.670;37.596;2022-09-03T05:24:14;100198.47;;;31.49;43.40
51081;BME280;37130;55.670;37.596;2022-09-03T05:26:41;100207.00;;;32.03;42.83
51081;BME280;37130;55.670;37.596;2022-09-03T05:29:08;100206.22;;;32.66;41.94
51081;BME280;37130;55.670;37.596;2022-09-03T05:31:36;100217.03;;;33.22;41.44
51081;BME280;37130;55.670;37.596;2022-09-03T05:34:05;100218.69;;;33.85;40.63
51081;BME280;37130;55.670;37.596;2022-09-03T05:36:34;100219.31;;;34.53;40.42
51081;BME280;37130;55.670;37.596;2022-09-03T05:39:02;100217.41;;;34.74;39.80
51081;BME280;37130;55.670;37.596;2022-09-03T05:41:30;100227.69;;;35.11;40.16
51081;BME280;37130;55.670;37.596;2022-09-03T05:43:59;100224.06;;;35.49;38.69
51081;BME280;37130;55.670;37.596;2022-09-03T05:46:28;100233.63;;;35.85;39.00
51081;BME280;37130;55.670;37.596;2022-09-03T05:48:59;100237.63;;;36.21;38.91
51081;BME280;37130;55.670;37.596;2022-09-03T05:51:28;100233.31;;;36.50;37.82
51081;BME280;37130;55.670;37.596;2022-09-03T05:53:56;100242.16;;;36.59;37.71
51081;BME280;37130;55.670;37.596;2022-09-03T05:56:24;100243.69;;;36.73;37.44
51081;BME280;37130;55.670;37.596;2022-09-03T05:58:53;100242.78;;;36.79;37.24
51081;BME280;37130;55.670;37.596;2022-09-03T06:01:22;100245.75;;;37.03;37.61
51081;BME280;37130;55.670;37.596;2022-09-03T06:04:09;100247.53;;;37.27;37.04
51081;BME280;37130;55.670;37.596;2022-09-03T06:06:38;100253.81;;;37.35;36.98
51081;BME280;37130;55.670;37.596;2022-09-03T06:09:07;100246.97;;;37.56;35.88
51081;BME280;37130;55.670;37.596;2022-09-03T06:11:35;100249.75;;;37.67;34.89
51081;BME280;37130;55.670;37.596;2022-09-03T06:14:05;100255.00;;;37.76;33.04
51081;BME280;37130;55.670;37.596;2022-09-03T06:16:33;100254.72;;;37.65;32.74
51081;BME280;37130;55.670;37.596;2022-09-03T06:19:02;100248.28;;;37.95;32.85
51081;BME280;37130;55.670;37.596;2022-09-03T06:21:30;100253.56;;;38.39;33.04
51081;BME280;37130;55.670;37.596;2022-09-03T06:23:57;100257.06;;;38.57;33.20
51081;BME280;37130;55.670;37.596;2022-09-03T06:26:26;100257.03;;;38.69;32.15
51081;BME280;37130;55.670;37.596;2022-09-03T06:28:57;100259.56;;;38.83;31.35
51081;BME280;37130;55.670;37.596;2022-09-03T06:31:25;100261.50;;;38.70;31.24
51081;BME280;37130;55.670;37.596;2022-09-03T06:33:53;100187.47;;;38.66;30.90
51081;BME280;37130;55.670;37.596;2022-09-03T06:36:21;100261.03;;;39.37;30.47
51081;BME280;37130;55.670;37.596;2022-09-03T06:38:53;100265.63;;;39.43;30.45
51081;BME280;37130;55.670;37.596;2022-09-03T06:41:21;100257.00;;;39.74;30.40
51081;BME280;37130;55.670;37.596;2022-09-03T06:43:59;100267.69;;;39.94;30.34
51081;BME280;37130;55.670;37.596;2022-09-03T06:46:30;100265.09;;;40.04;29.95
51081;BME280;37130;55.670;37.596;2022-09-03T06:48:58;100268.75;;;39.93;29.66
51081;BME280;37130;55.670;37.596;2022-09-03T06:51:27;100264.66;;;40.12;28.55
51081;BME280;37130;55.670;37.596;2022-09-03T06:54:08;100265.78;;;40.28;27.87
51081;BME280;37130;55.670;37.596;2022-09-03T06:56:37;100267.09;;;40.59;27.51
51081;BME280;37130;55.670;37.596;2022-09-03T06:59:07;100264.91;;;40.10;28.32
51081;BME280;37130;55.670;37.596;2022-09-03T07:01:35;100260.19;;;39.37;28.69
51081;BME280;37130;55.670;37.596;2022-09-03T07:04:11;100264.91;;;39.65;28.28
51081;BME280;37130;55.670;37.596;2022-09-03T07:06:39;100262.53;;;40.02;27.36
51081;BME280;37130;55.670;37.596;2022-09-03T07:09:09;100271.47;;;40.72;26.84
51081;BME280;37130;55.670;37.596;2022-09-03T07:11:37;100271.09;;;40.85;26.00
51081;BME280;37130;55.670;37.596;2022-09-03T07:14:12;100282.56;;;41.33;25.15
51081;BME280;37130;55.670;37.596;2022-09-03T07:16:40;100277.66;;;41.62;24.80
51081;BME280;37130;55.670;37.596;2022-09-03T07:19:11;100274.19;;;41.77;24.37
51081;BME280;37130;55.670;37.596;2022-09-03T07:21:40;100282.00;;;41.80;24.24
51081;BME280;37130;55.670;37.596;2022-09-03T07:24:14;100274.13;;;40.84;24.05
51081;BME280;37130;55.670;37.596;2022-09-03T07:26:42;100276.88;;;40.28;23.86
51081;BME280;37130;55.670;37.596;2022-09-03T07:29:15;100273.97;;;40.06;24.12
51081;BME280;37130;55.670;37.596;2022-09-03T07:31:47;100275.66;;;39.21;24.81
51081;BME280;37130;55.670;37.596;2022-09-03T07:34:18;100271.31;;;39.54;24.52
51081;BME280;37130;55.670;37.596;2022-09-03T07:36:48;100272.22;;;40.00;24.01
51081;BME280;37130;55.670;37.596;2022-09-03T07:39:18;100273.16;;;40.39;23.15
51081;BME280;37130;55.670;37.596;2022-09-03T07:41:45;100273.84;;;40.46;22.84
51081;BME280;37130;55.670;37.596;2022-09-03T07:44:13;100275.16;;;40.61;22.26
51081;BME280;37130;55.670;37.596;2022-09-03T07:46:46;100271.28;;;40.11;22.25
51081;BME280;37130;55.670;37.596;2022-09-03T07:49:15;100269.00;;;40.08;22.76
51081;BME280;37130;55.670;37.596;2022-09-03T07:51:43;100272.66;;;40.59;22.51
51081;BME280;37130;55.670;37.596;2022-09-03T07:54:13;100263.03;;;39.82;22.94
51081;BME280;37130;55.670;37.596;2022-09-03T07:56:40;100258.44;;;38.25;24.35
51081;BME280;37130;55.670;37.596;2022-09-03T07:59:07;100266.56;;;38.73;23.21
51081;BME280;37130;55.670;37.596;2022-09-03T08:01:35;100266.09;;;39.40;22.52
51081;BME280;37130;55.670;37.596;2022-09-03T08:04:07;100259.25;;;39.60;22.21
51081;BME280;37130;55.670;37.596;2022-09-03T08:06:36;100259.00;;;39.90;22.15
51081;BME280;37130;55.670;37.596;2022-09-03T08:09:05;100258.16;;;39.90;22.14
51081;BME280;37130;55.670;37.596;2022-09-03T08:11:37;100258.38;;;37.89;23.79
51081;BME280;37130;55.670;37.596;2022-09-03T08:14:06;100254.63;;;35.48;26.36
51081;BME280;37130;55.670;37.596;2022-09-03T08:16:35;100258.72;;;33.46;27.89
51081;BME280;37130;55.670;37.596;2022-09-03T08:19:03;100250.72;;;31.90;29.06
51081;BME280;37130;55.670;37.596;2022-09-03T08:21:31;100250.81;;;30.65;29.65
51081;BME280;37130;55.670;37.596;2022-09-03T08:23:58;100241.31;;;29.54;29.32
51081;BME280;37130;55.670;37.596;2022-09-03T08:26:29;100240.00;;;28.22;28.51
51081;BME280;37130;55.670;37.596;2022-09-03T08:28:58;100238.28;;;27.13;28.52
51081;BME280;37130;55.670;37.596;2022-09-03T08:31:25;100227.78;;;26.23;29.19
51081;BME280;37130;55.670;37.596;2022-09-03T08:33:54;100224.94;;;25.53;29.27
51081;BME280;37130;55.670;37.596;2022-09-03T08:36:26;100231.03;;;25.37;28.95
51081;BME280;37130;55.670;37.596;2022-09-03T08:38:56;100235.38;;;25.02;28.58
51081;BME280;37130;55.670;37.596;2022-09-03T08:44:24;100238.47;;;24.03;29.13
51081;BME280;37130;55.670;37.596;2022-09-03T08:47:09;100238.34;;;23.76;29.20
51081;BME280;37130;55.670;37.596;2022-09-03T08:49:44;100235.16;;;23.41;30.13
51081;BME280;37130;55.670;37.596;2022-09-03T08:54:54;100228.88;;;22.91;30.83
51081;BME280;37130;55.670;37.596;2022-09-03T08:57:24;100232.09;;;22.23;30.99
51081;BME280;37130;55.670;37.596;2022-09-03T08:59:52;100225.88;;;21.70;31.38
51081;BME280;37130;55.670;37.596;2022-09-03T09:15:34;100224.78;;;21.61;31.08
51081;BME280;37130;55.670;37.596;2022-09-03T09:18:11;100211.25;;;21.51;31.06
51081;BME280;37130;55.670;37.596;2022-09-03T09:23:13;100210.47;;;21.60;30.86
51081;BME280;37130;55.670;37.596;2022-09-03T09:25:48;100208.94;;;21.47;31.08
51081;BME280;37130;55.670;37.596;2022-09-03T09:28:20;100213.03;;;21.07;31.06
51081;BME280;37130;55.670;37.596;2022-09-03T09:30:49;100212.59;;;20.68;31.26
51081;BME280;37130;55.670;37.596;2022-09-03T09:33:18;100213.72;;;20.19;31.13
51081;BME280;37130;55.670;37.596;2022-09-03T09:35:47;100222.94;;;19.57;31.67
51081;BME280;37130;55.670;37.596;2022-09-03T09:38:14;100218.00;;;19.27;31.93
51081;BME280;37130;55.670;37.596;2022-09-03T09:40:42;100226.44;;;19.10;31.95
51081;BME280;37130;55.670;37.596;2022-09-03T09:43:12;100223.47;;;18.89;32.08
51081;BME280;37130;55.670;37.596;2022-09-03T09:45:42;100228.88;;;18.63;32.44
51081;BME280;37130;55.670;37.596;2022-09-03T09:48:31;100218.47;;;18.46;32.30
51081;BME280;37130;55.670;37.596;2022-09-03T09:51:03;100216.78;;;18.19;32.66
51081;BME280;37130;55.670;37.596;2022-09-03T09:53:32;100214.50;;;18.00;32.74
51081;BME280;37130;55.670;37.596;2022-09-03T09:56:00;100213.81;;;17.84;33.11
51081;BME280;37130;55.670;37.596;2022-09-03T09:58:31;100210.53;;;17.93;33.04
51081;BME280;37130;55.670;37.596;2022-09-03T10:01:05;100208.94;;;18.03;32.97
51081;BME280;37130;55.670;37.596;2022-09-03T10:03:40;100206.34;;;18.14;33.18
51081;BME280;37130;55.670;37.596;2022-09-03T10:06:14;100200.03;;;18.41;33.03
51081;BME280;37130;55.670;37.596;2022-09-03T10:09:07;100193.47;;;18.71;32.65
51081;BME280;37130;55.670;37.596;2022-09-03T10:11:36;100196.34;;;18.80;32.56
51081;BME280;37130;55.670;37.596;2022-09-03T10:14:10;100198.19;;;18.80;32.87
51081;BME280;37130;55.670;37.596;2022-09-03T10:16:41;100195.38;;;18.69;32.93
51081;BME280;37130;55.670;37.596;2022-09-03T10:19:15;100195.94;;;18.61;33.06
51081;BME280;37130;55.670;37.596;2022-09-03T10:21:46;100188.28;;;18.68;32.97
51081;BME280;37130;55.670;37.596;2022-09-03T10:24:24;100191.34;;;18.76;33.16
51081;BME280;37130;55.670;37.596;2022-09-03T10:26:55;100192.56;;;18.96;33.02
51081;BME280;37130;55.670;37.596;2022-09-03T10:29:24;100195.38;;;19.18;33.01
51081;BME280;37130;55.670;37.596;2022-09-03T10:32:04;100202.31;;;19.34;32.85
51081;BME280;37130;55.670;37.596;2022-09-03T10:34:43;100195.38;;;19.42;32.96
51081;BME280;37130;55.670;37.596;2022-09-03T10:47:57;100215.78;;;19.45;33.26
51081;BME280;37130;55.670;37.596;2022-09-03T10:50:33;100210.59;;;19.55;33.20
51081;BME280;37130;55.670;37.596;2022-09-03T10:53:12;100207.50;;;19.72;33.33
51081;BME280;37130;55.670;37.596;2022-09-03T11:00:53;100207.91;;;20.36;33.14
51081;BME280;37130;55.670;37.596;2022-09-03T11:06:16;100222.44;;;20.23;33.09
51081;BME280;37130;55.670;37.596;2022-09-03T11:08:52;100206.13;;;20.02;33.35
51081;BME280;37130;55.670;37.596;2022-09-03T11:11:21;100209.28;;;19.96;33.42
51081;BME280;37130;55.670;37.596;2022-09-03T11:14:06;100136.53;;;19.51;33.43
51081;BME280;37130;55.670;37.596;2022-09-03T11:16:39;100206.25;;;20.00;33.36
51081;BME280;37130;55.670;37.596;2022-09-03T11:19:11;100207.94;;;19.90;33.34
51081;BME280;37130;55.670;37.596;2022-09-03T11:21:41;100200.03;;;19.52;33.15
51081;BME280;37130;55.670;37.596;2022-09-03T11:24:17;100206.47;;;19.14;33.55
51081;BME280;37130;55.670;37.596;2022-09-03T11:26:52;100196.56;;;18.77;33.65
51081;BME280;37130;55.670;37.596;2022-09-03T11:29:25;100202.47;;;18.44;33.96
51081;BME280;37130;55.670;37.596;2022-09-03T11:32:00;100203.13;;;18.09;34.03
51081;BME280;37130;55.670;37.596;2022-09-03T11:34:47;100197.03;;;17.67;34.23
51081;BME280;37130;55.670;37.596;2022-09-03T11:37:16;100195.63;;;17.62;34.42
51081;BME280;37130;55.670;37.596;2022-09-03T11:39:51;100191.69;;;17.67;34.36
51081;BME280;37130;55.670;37.596;2022-09-03T11:42:29;100190.88;;;17.80;34.59
51081;BME280;37130;55.670;37.596;2022-09-03T11:45:11;100181.88;;;17.93;34.74
51081;BME280;37130;55.670;37.596;2022-09-03T11:47:41;100176.31;;;18.09;34.83
51081;BME280;37130;55.670;37.596;2022-09-03T11:52:47;100171.72;;;18.37;34.65
51081;BME280;37130;55.670;37.596;2022-09-03T11:55:26;100169.34;;;18.45;34.56
51081;BME280;37130;55.670;37.596;2022-09-03T12:00:55;100168.06;;;18.38;34.59
51081;BME280;37130;55.670;37.596;2022-09-03T12:03:48;100164.97;;;18.31;34.54
51081;BME280;37130;55.670;37.596;2022-09-03T12:06:25;100160.88;;;18.13;34.74
51081;BME280;37130;55.670;37.596;2022-09-03T12:14:19;100153.97;;;17.70;34.83
51081;BME280;37130;55.670;37.596;2022-09-03T12:19:31;100149.63;;;17.42;35.10
51081;BME280;37130;55.670;37.596;2022-09-03T12:22:14;100147.00;;;17.28;34.96
51081;BME280;37130;55.670;37.596;2022-09-03T12:24:48;100149.44;;;17.18;35.03
51081;BME280;37130;55.670;37.596;2022-09-03T12:27:22;100148.78;;;17.15;35.18
51081;BME280;37130;55.670;37.596;2022-09-03T12:29:52;100143.63;;;17.12;35.26
51081;BME280;37130;55.670;37.596;2022-09-03T12:32:28;100138.38;;;17.10;35.28
51081;BME280;37130;55.670;37.596;2022-09-03T12:35:12;100136.00;;;17.05;35.36
51081;BME280;37130;55.670;37.596;2022-09-03T12:38:03;100129.16;;;17.01;35.54
51081;BME280;37130;55.670;37.596;2022-09-03T12:40:39;100129.22;;;17.00;35.45
51081;BME280;37130;55.670;37.596;2022-09-03T12:43:30;100127.88;;;17.07;35.66
51081;BME280;37130;55.670;37.596;2022-09-03T12:46:12;100121.69;;;17.06;35.55
51081;BME280;37130;55.670;37.596;2022-09-03T12:48:46;100124.78;;;17.13;35.67
51081;BME280;37130;55.670;37.596;2022-09-03T12:51:41;100129.63;;;17.21;35.68
51081;BME280;37130;55.670;37.596;2022-09-03T12:54:16;100131.56;;;17.19;35.79
51081;BME280;37130;55.670;37.596;2022-09-03T12:56:48;100136.00;;;17.05;35.94
51081;BME280;37130;55.670;37.596;2022-09-03T12:59:20;100139.66;;;17.04;36.01
51081;BME280;37130;55.670;37.596;2022-09-03T13:01:51;100127.78;;;17.08;36.26
51081;BME280;37130;55.670;37.596;2022-09-03T13:04:25;100116.91;;;17.24;36.52
51081;BME280;37130;55.670;37.596;2022-09-03T13:09:39;100117.16;;;17.87;36.21
51081;BME280;37130;55.670;37.596;2022-09-03T13:12:23;100117.78;;;18.03;36.24
51081;BME280;37130;55.670;37.596;2022-09-03T13:14:55;100117.47;;;17.95;36.04
51081;BME280;37130;55.670;37.596;2022-09-03T13:25:29;100107.50;;;17.31;36.50
51081;BME280;37130;55.670;37.596;2022-09-03T13:31:05;100106.63;;;16.91;36.60
51081;BME280;37130;55.670;37.596;2022-09-03T13:33:47;100099.84;;;16.71;36.86
51081;BME280;37130;55.670;37.596;2022-09-03T13:36:45;100108.13;;;16.54;37.08
51081;BME280;37130;55.670;37.596;2022-09-03T13:39:37;100109.28;;;16.50;36.95
51081;BME280;37130;55.670;37.596;2022-09-03T13:47:56;100100.44;;;16.20;37.28
51081;BME280;37130;55.670;37.596;2022-09-03T13:50:50;100097.97;;;16.17;37.30
51081;BME280;37130;55.670;37.596;2022-09-03T14:04:02;100080.13;;;16.04;37.78
51081;BME280;37130;55.670;37.596;2022-09-03T14:09:14;100071.69;;;16.24;37.60
51081;BME280;37130;55.670;37.596;2022-09-03T14:16:54;100079.91;;;16.35;37.37
51081;BME280;37130;55.670;37.596;2022-09-03T14:21:58;100073.22;;;16.28;37.66
51081;BME280;37130;55.670;37.596;2022-09-03T14:27:23;100068.66;;;16.02;38.31
51081;BME280;37130;55.670;37.596;2022-09-03T14:35:37;100066.78;;;16.04;38.30
51081;BME280;37130;55.670;37.596;2022-09-03T14:38:22;100058.72;;;16.18;38.09
51081;BME280;37130;55.670;37.596;2022-09-03T15:00:30;100060.00;;;15.39;38.57
51081;BME280;37130;55.670;37.596;2022-09-03T15:13:41;100069.94;;;15.51;38.96
51081;BME280;37130;55.670;37.596;2022-09-03T15:16:30;100060.78;;;15.55;39.14
51081;BME280;37130;55.670;37.596;2022-09-03T15:30:10;100044.56;;;15.44;40.03
51081;BME280;37130;55.670;37.596;2022-09-03T15:41:03;100048.19;;;14.99;40.31
51081;BME280;37130;55.670;37.596;2022-09-03T15:43:33;100047.53;;;14.79;40.45
51081;BME280;37130;55.670;37.596;2022-09-03T15:48:58;100049.94;;;14.36;41.43
51081;BME280;37130;55.670;37.596;2022-09-03T15:51:29;100047.44;;;14.17;41.56
51081;BME280;37130;55.670;37.596;2022-09-03T15:59:40;100046.66;;;13.66;42.24
51081;BME280;37130;55.670;37.596;2022-09-03T16:10:07;100055.03;;;13.06;43.90
51081;BME280;37130;55.670;37.596;2022-09-03T16:15:26;100051.03;;;12.80;44.66
51081;BME280;37130;55.670;37.596;2022-09-03T16:24:02;100057.13;;;12.46;45.61
51081;BME280;37130;55.670;37.596;2022-09-03T16:26:35;100056.69;;;12.36;46.13
51081;BME280;37130;55.670;37.596;2022-09-03T16:29:12;100057.16;;;12.27;46.51
51081;BME280;37130;55.670;37.596;2022-09-03T16:46:00;100059.25;;;11.81;47.13
51081;BME280;37130;55.670;37.596;2022-09-03T16:51:04;100061.88;;;11.81;47.08
51081;BME280;37130;55.670;37.596;2022-09-03T16:56:36;100069.19;;;11.96;47.51
51081;BME280;37130;55.670;37.596;2022-09-03T17:04:30;100044.66;;;11.91;47.97
51081;BME280;37130;55.670;37.596;2022-09-03T17:12:19;100067.69;;;11.91;48.47
51081;BME280;37130;55.670;37.596;2022-09-03T17:30:44;100077.31;;;11.73;48.64
51081;BME280;37130;55.670;37.596;2022-09-03T17:36:21;100074.00;;;11.88;48.93
51081;BME280;37130;55.670;37.596;2022-09-03T17:47:11;100077.53;;;12.07;48.79
51081;BME280;37130;55.670;37.596;2022-09-03T17:50:15;100073.00;;;12.10;48.52
51081;BME280;37130;55.670;37.596;2022-09-03T17:52:42;100064.34;;;12.06;49.04
51081;BME280;37130;55.670;37.596;2022-09-03T17:55:16;100082.19;;;12.02;49.01
51081;BME280;37130;55.670;37.596;2022-09-03T17:57:59;100072.50;;;12.01;48.84